Time;durP1;ratioP1;P1;durP2;ratioP2;P2;SDS_P1;SDS_P2;PMS_P1;PMS_P2;Temp;Humidity;BMP_temperature;BMP_pressure;BME280_temperature;BME280_humidity;BME280_pressure;Samples;Min_cycle;Max_cycle;Signal;HPM_P1;HPM_P2
2024/04/05 00:00:42;;;;;;;37.00;6.50;;;11.00;99.90;;;;;;5096744;27;20047;-82
2024/04/05 00:03:07;;;;;;;36.78;6.25;;;11.10;99.90;;;;;;5113438;27;20062;-82
2024/04/05 00:05:34;;;;;;;36.35;6.13;;;10.90;99.90;;;;;;5116602;27;20050;-82
2024/04/05 00:08:00;;;;;;;37.72;6.72;;;11.00;99.90;;;;;;5115479;27;20482;-82
2024/04/05 00:10:25;;;;;;;36.30;5.85;;;10.80;99.90;;;;;;5112136;27;20043;-82
2024/04/05 00:12:51;;;;;;;39.92;6.53;;;10.80;99.90;;;;;;5100008;28;20047;-82
2024/04/05 00:15:17;;;;;;;33.78;6.25;;;10.90;99.90;;;;;;5107076;27;20772;-81
2024/04/05 00:17:45;;;;;;;35.15;6.72;;;10.90;99.90;;;;;;5117789;27;20066;-82
2024/04/05 00:20:11;;;;;;;33.08;6.28;;;10.90;99.90;;;;;;5126613;27;20047;-82
2024/04/05 00:22:36;;;;;;;39.28;6.88;;;10.80;99.90;;;;;;5109402;27;20131;-82
2024/04/05 00:25:02;;;;;;;37.53;6.05;;;10.80;99.90;;;;;;5112399;27;20130;-82
2024/04/05 00:27:28;;;;;;;37.33;6.05;;;10.80;99.90;;;;;;5121520;27;20758;-81
2024/04/05 00:29:54;;;;;;;31.77;5.30;;;10.70;99.90;;;;;;5112823;27;20054;-82
2024/04/05 00:32:20;;;;;;;31.75;6.30;;;10.80;99.90;;;;;;5100253;28;20186;-82
2024/04/05 00:34:45;;;;;;;29.10;4.78;;;10.80;99.90;;;;;;5109732;27;20784;-82
2024/04/05 00:37:12;;;;;;;32.22;5.25;;;11.00;99.90;;;;;;5127121;27;20107;-83
2024/04/05 00:39:38;;;;;;;29.85;5.20;;;10.70;99.90;;;;;;5123801;27;20047;-81
2024/04/05 00:42:04;;;;;;;29.65;4.72;;;10.80;99.90;;;;;;5123350;27;20043;-82
2024/04/05 00:44:29;;;;;;;31.02;6.13;;;10.80;99.90;;;;;;5119331;27;20460;-83
2024/04/05 00:46:55;;;;;;;26.58;4.63;;;10.80;99.90;;;;;;5105760;28;20075;-82
2024/04/05 00:49:20;;;;;;;27.88;4.45;;;10.80;99.90;;;;;;5110861;27;20039;-81
2024/04/05 00:51:46;;;;;;;33.58;6.00;;;10.80;99.90;;;;;;5121284;27;20141;-82
2024/04/05 00:54:12;;;;;;;25.73;5.13;;;10.90;99.90;;;;;;5114666;27;20039;-81
2024/04/05 00:56:38;;;;;;;31.08;4.63;;;10.80;99.90;;;;;;5114620;27;20141;-82
2024/04/05 00:59:04;;;;;;;34.65;4.95;;;11.00;99.90;;;;;;5103686;28;20039;-82
2024/04/05 01:01:31;;;;;;;30.25;5.20;;;10.80;99.90;;;;;;5111944;27;20042;-81
2024/04/05 01:03:56;;;;;;;24.77;4.63;;;10.70;99.90;;;;;;5107254;27;20065;-82
2024/04/05 01:06:22;;;;;;;24.25;4.72;;;10.80;99.90;;;;;;5095750;28;20040;-82
2024/04/05 01:08:48;;;;;;;24.02;4.75;;;10.80;99.90;;;;;;5115304;27;20038;-81
2024/04/05 01:11:14;;;;;;;30.38;4.65;;;10.70;99.90;;;;;;5131862;27;20043;-81
2024/04/05 01:13:39;;;;;;;28.10;4.63;;;10.80;99.90;;;;;;5127945;27;20051;-80
2024/04/05 01:16:06;;;;;;;25.27;3.97;;;10.70;99.90;;;;;;5110860;27;20060;-79
2024/04/05 01:18:32;;;;;;;17.48;3.80;;;10.70;99.90;;;;;;5095868;28;20067;-80
2024/04/05 01:21:01;;;;;;;30.65;5.35;;;10.70;99.90;;;;;;5108938;28;20044;-80
2024/04/05 01:23:28;;;;;;;25.70;4.60;;;10.60;99.90;;;;;;5113732;28;20048;-79
2024/04/05 01:25:55;;;;;;;30.13;4.38;;;10.60;99.90;;;;;;5113564;28;20055;-79
2024/04/05 01:28:20;;;;;;;23.55;5.07;;;10.60;99.90;;;;;;5113999;28;20047;-79
2024/04/05 01:30:46;;;;;;;27.98;4.65;;;10.60;99.90;;;;;;5079115;28;20354;-80
2024/04/05 01:33:12;;;;;;;29.23;4.95;;;10.60;99.90;;;;;;5093420;28;20050;-79
2024/04/05 01:35:38;;;;;;;23.98;3.63;;;10.60;99.90;;;;;;5083839;28;20047;-80
2024/04/05 01:38:04;;;;;;;28.20;4.72;;;10.60;99.90;;;;;;5131147;27;20070;-79
2024/04/05 01:40:30;;;;;;;30.00;4.95;;;10.60;99.90;;;;;;5114130;27;20362;-79
2024/04/05 01:42:56;;;;;;;22.90;4.47;;;10.60;99.90;;;;;;5114716;27;20043;-79
2024/04/05 01:45:21;;;;;;;24.95;3.80;;;10.70;99.90;;;;;;5104571;27;20039;-80
2024/04/05 01:47:47;;;;;;;22.73;4.30;;;10.70;99.90;;;;;;5109620;27;20050;-80
2024/04/05 01:50:14;;;;;;;17.55;3.63;;;10.60;99.90;;;;;;5126668;27;20058;-80
2024/04/05 01:52:40;;;;;;;29.52;4.38;;;10.70;99.90;;;;;;5123936;27;20083;-81
2024/04/05 01:55:06;;;;;;;23.05;4.60;;;10.80;99.90;;;;;;5107322;27;20166;-80
2024/04/05 01:57:35;;;;;;;22.20;4.00;;;10.70;99.90;;;;;;5112046;27;20702;-79
2024/04/05 02:00:01;;;;;;;23.38;4.38;;;10.70;99.90;;;;;;5125380;27;20057;-80
2024/04/05 02:02:27;;;;;;;21.40;3.83;;;10.70;99.90;;;;;;5121997;27;20111;-82
2024/04/05 02:04:53;;;;;;;20.95;3.60;;;10.90;99.90;;;;;;5087989;27;20043;-80
2024/04/05 02:07:22;;;;;;;19.92;4.30;;;11.00;99.90;;;;;;5124994;27;20051;-81
2024/04/05 02:09:49;;;;;;;26.77;4.20;;;10.80;99.90;;;;;;5094952;28;20050;-82
2024/04/05 02:12:19;;;;;;;17.85;4.72;;;10.80;99.90;;;;;;5096555;28;20066;-81
2024/04/05 02:14:45;;;;;;;28.02;3.83;;;10.70;99.90;;;;;;5086986;28;20043;-81
2024/04/05 02:17:11;;;;;;;29.17;5.00;;;10.80;99.90;;;;;;5105640;28;20051;-81
2024/04/05 02:19:37;;;;;;;27.52;5.72;;;10.70;99.90;;;;;;5107346;28;20054;-81
2024/04/05 02:22:05;;;;;;;25.42;4.50;;;10.70;99.90;;;;;;5101421;28;20040;-81
2024/04/05 02:24:31;;;;;;;25.25;4.43;;;10.70;99.90;;;;;;5087173;28;20127;-81
2024/04/05 02:26:56;;;;;;;18.35;3.67;;;10.60;99.90;;;;;;5108987;28;20077;-80
2024/04/05 02:29:22;;;;;;;25.73;4.45;;;10.90;99.90;;;;;;5103728;28;20080;-80
2024/04/05 02:31:48;;;;;;;25.88;3.67;;;10.60;99.90;;;;;;5090466;27;20475;-81
2024/04/05 02:34:14;;;;;;;25.50;3.75;;;10.60;99.90;;;;;;5110466;27;20063;-80
2024/04/05 02:36:39;;;;;;;24.95;4.30;;;10.60;99.90;;;;;;5093423;28;20043;-81
2024/04/05 02:39:06;;;;;;;25.65;5.20;;;10.60;99.90;;;;;;5091425;28;20994;-82
2024/04/05 02:41:32;;;;;;;25.95;4.43;;;10.60;99.90;;;;;;5094379;27;20035;-80
2024/04/05 02:43:58;;;;;;;23.08;4.47;;;10.70;99.90;;;;;;5120905;27;20804;-81
2024/04/05 02:46:24;;;;;;;22.63;4.07;;;10.90;99.90;;;;;;5109121;27;20043;-80
2024/04/05 02:48:50;;;;;;;21.65;4.07;;;10.70;99.90;;;;;;5110620;27;20039;-80
2024/04/05 02:51:16;;;;;;;18.90;4.13;;;10.90;99.90;;;;;;5109114;28;20507;-81
2024/04/05 02:53:42;;;;;;;33.45;4.10;;;10.60;99.90;;;;;;5101006;28;20690;-81
2024/04/05 02:56:10;;;;;;;29.20;5.22;;;10.80;99.90;;;;;;5090035;28;20031;-81
2024/04/05 02:58:35;;;;;;;23.17;4.47;;;10.60;99.90;;;;;;5108206;27;20122;-81
2024/04/05 03:01:01;;;;;;;26.20;3.80;;;10.80;99.90;;;;;;5127339;27;20039;-82
2024/04/05 03:03:27;;;;;;;22.50;3.95;;;10.60;99.90;;;;;;5105332;27;20067;-81
2024/04/05 03:05:52;;;;;;;21.00;4.28;;;10.80;99.90;;;;;;5101752;27;20047;-81
2024/04/05 03:08:18;;;;;;;20.25;3.70;;;10.70;99.90;;;;;;5106890;27;20051;-81
2024/04/05 03:10:43;;;;;;;26.67;5.00;;;10.60;99.90;;;;;;5091340;28;20043;-81
2024/04/05 03:13:09;;;;;;;30.17;5.32;;;10.60;99.90;;;;;;5090110;27;20544;-82
2024/04/05 03:15:35;;;;;;;18.05;4.10;;;10.70;99.90;;;;;;5109001;27;20051;-82
2024/04/05 03:18:00;;;;;;;23.42;4.20;;;10.70;99.90;;;;;;5089435;28;20712;-82
2024/04/05 03:20:26;;;;;;;27.40;4.57;;;10.90;99.90;;;;;;5107264;28;20048;-80
2024/04/05 03:22:53;;;;;;;29.52;5.38;;;10.70;99.90;;;;;;5120537;27;20134;-80
2024/04/05 03:25:18;;;;;;;26.60;5.40;;;10.70;99.90;;;;;;5111044;27;20047;-80
2024/04/05 03:27:44;;;;;;;26.45;4.60;;;10.70;99.90;;;;;;5125690;27;20158;-81
2024/04/05 03:30:09;;;;;;;25.95;4.85;;;10.80;99.90;;;;;;5109039;27;20047;-80
2024/04/05 03:32:35;;;;;;;35.05;4.85;;;10.70;99.90;;;;;;5092155;28;20051;-80
2024/04/05 03:35:02;;;;;;;28.75;4.63;;;10.80;99.90;;;;;;5096337;27;20050;-81
2024/04/05 03:37:28;;;;;;;30.67;5.53;;;10.70;99.90;;;;;;5103886;27;20124;-81
2024/04/05 03:39:54;;;;;;;24.15;5.43;;;10.90;99.90;;;;;;5097353;28;20051;-81
2024/04/05 03:42:20;;;;;;;29.75;5.50;;;10.80;99.90;;;;;;5089869;28;20121;-81
2024/04/05 03:44:48;;;;;;;32.85;5.32;;;10.80;99.90;;;;;;5094468;27;20859;-81
2024/04/05 03:47:14;;;;;;;27.13;5.20;;;10.80;99.90;;;;;;5127375;27;20063;-81
2024/04/05 03:49:40;;;;;;;27.45;5.10;;;10.80;99.90;;;;;;5128050;27;20405;-81
2024/04/05 03:52:06;;;;;;;30.52;5.28;;;10.80;99.90;;;;;;5127346;27;20047;-81
2024/04/05 03:54:32;;;;;;;27.00;5.03;;;10.80;99.90;;;;;;5109345;27;20047;-80
2024/04/05 03:56:58;;;;;;;26.80;5.88;;;10.80;99.90;;;;;;5100227;28;20054;-80
2024/04/05 03:59:26;;;;;;;24.50;4.80;;;10.80;99.90;;;;;;5104762;27;20070;-81
2024/04/05 04:01:52;;;;;;;31.17;4.88;;;10.90;99.90;;;;;;5101235;27;20375;-81
2024/04/05 04:04:18;;;;;;;26.98;5.63;;;11.00;99.90;;;;;;5094791;28;20131;-81
2024/04/05 04:06:44;;;;;;;22.20;4.68;;;10.90;99.90;;;;;;5103227;28;20043;-81
2024/04/05 04:09:11;;;;;;;24.92;4.40;;;10.90;99.90;;;;;;5088972;28;20126;-81
2024/04/05 04:11:39;;;;;;;25.67;4.43;;;10.80;99.90;;;;;;5089019;28;20134;-81
2024/04/05 04:14:05;;;;;;;27.98;4.80;;;10.90;99.90;;;;;;5106462;27;20055;-80
2024/04/05 04:16:31;;;;;;;31.70;5.80;;;10.90;99.90;;;;;;5097047;27;20039;-81
2024/04/05 04:18:57;;;;;;;28.15;5.38;;;11.00;99.90;;;;;;5118816;27;20576;-81
2024/04/05 04:21:24;;;;;;;26.73;4.75;;;10.90;99.90;;;;;;5104083;28;20666;-80
2024/04/05 04:23:51;;;;;;;20.10;4.38;;;10.90;99.90;;;;;;5089128;28;20134;-80
2024/04/05 04:26:16;;;;;;;28.02;5.75;;;10.90;99.90;;;;;;5089361;28;20043;-80
2024/04/05 04:28:42;;;;;;;24.27;4.55;;;10.90;99.90;;;;;;5092658;28;20096;-80
2024/04/05 04:31:22;;;;;;;24.58;4.53;;;10.80;99.90;;;;;;5090376;27;20426;-80
2024/04/05 04:33:50;;;;;;;22.80;4.45;;;10.90;99.90;;;;;;5099359;28;20046;-80
2024/04/05 04:36:16;;;;;;;30.40;5.80;;;10.90;99.90;;;;;;5102910;27;20088;-80
2024/04/05 04:38:42;;;;;;;28.45;5.85;;;10.90;99.90;;;;;;5103635;27;20747;-79
2024/04/05 04:41:07;;;;;;;18.52;3.95;;;10.90;99.90;;;;;;5107101;27;20086;-81
2024/04/05 04:43:33;;;;;;;24.70;4.85;;;10.90;99.90;;;;;;5112848;27;20049;-80
2024/04/05 04:45:59;;;;;;;21.67;4.80;;;10.90;99.90;;;;;;5105440;27;20713;-80
2024/04/05 04:48:28;;;;;;;19.52;4.40;;;10.90;99.90;;;;;;5092787;28;20044;-80
2024/04/05 04:50:53;;;;;;;24.73;4.75;;;10.90;99.90;;;;;;5088559;27;20173;-79
2024/04/05 04:53:19;;;;;;;20.63;5.47;;;10.90;99.90;;;;;;5105547;28;20047;-80
2024/04/05 04:55:45;;;;;;;24.70;6.15;;;11.00;99.90;;;;;;5093968;27;20058;-80
2024/04/05 04:58:11;;;;;;;30.30;10.50;;;10.90;99.90;;;;;;5107605;27;20047;-82
2024/04/05 05:00:37;;;;;;;36.30;9.15;;;10.90;99.90;;;;;;5121118;27;20557;-80
2024/04/05 05:03:05;;;;;;;27.67;7.68;;;11.00;99.90;;;;;;5119561;27;20615;-83
2024/04/05 05:05:30;;;;;;;27.67;5.45;;;10.90;99.90;;;;;;5106281;28;20043;-80
2024/04/05 05:07:56;;;;;;;24.75;5.80;;;11.10;99.90;;;;;;5096089;27;20467;-80
2024/04/05 05:10:22;;;;;;;28.13;5.05;;;10.80;99.90;;;;;;5089015;27;20047;-80
2024/04/05 05:12:48;;;;;;;26.27;5.72;;;10.90;99.90;;;;;;5099075;27;20047;-79
2024/04/05 05:15:13;;;;;;;22.70;4.85;;;10.90;99.90;;;;;;5113550;27;20043;-82
2024/04/05 05:17:39;;;;;;;23.92;5.22;;;10.80;99.90;;;;;;5096569;27;20065;-82
2024/04/05 05:20:08;;;;;;;27.67;6.22;;;10.80;99.90;;;;;;5089100;27;20107;-82
2024/04/05 05:22:34;;;;;;;21.25;4.40;;;10.80;99.90;;;;;;5122735;27;20039;-82
2024/04/05 05:24:59;;;;;;;21.13;4.07;;;10.80;99.90;;;;;;5090524;27;20091;-81
2024/04/05 05:27:25;;;;;;;23.70;5.85;;;10.80;99.90;;;;;;5120691;27;20686;-80
2024/04/05 05:29:52;;;;;;;19.42;4.57;;;10.20;99.90;;;;;;5116647;27;20040;-81
2024/04/05 05:32:17;;;;;;;27.90;5.45;;;10.80;99.90;;;;;;5102001;27;20045;-81
2024/04/05 05:34:43;;;;;;;25.73;5.00;;;10.80;99.90;;;;;;5107667;27;20687;-79
2024/04/05 05:37:08;;;;;;;26.98;4.82;;;10.80;99.90;;;;;;5116797;27;20085;-79
2024/04/05 05:39:34;;;;;;;25.60;5.45;;;10.80;99.90;;;;;;5122338;27;20066;-80
2024/04/05 05:42:00;;;;;;;28.02;5.18;;;11.10;99.90;;;;;;5072724;27;20888;-80
2024/04/05 05:44:26;;;;;;;21.02;4.57;;;10.80;99.90;;;;;;5122791;27;20126;-80
2024/04/05 05:46:52;;;;;;;28.02;4.78;;;10.80;99.90;;;;;;5089714;28;20044;-81
2024/04/05 05:49:17;;;;;;;20.13;5.65;;;10.80;99.90;;;;;;5098021;27;20571;-86
2024/04/05 05:51:43;;;;;;;32.45;5.45;;;10.80;99.90;;;;;;5118024;27;20043;-77
2024/04/05 05:54:09;;;;;;;29.48;5.30;;;10.80;99.90;;;;;;5101041;28;20058;-79
2024/04/05 05:56:35;;;;;;;26.70;5.03;;;10.90;99.90;;;;;;5107038;27;20477;-82
2024/04/05 05:59:01;;;;;;;27.63;5.85;;;10.90;99.90;;;;;;5104674;27;20054;-79
2024/04/05 06:01:29;;;;;;;26.65;6.18;;;10.90;99.90;;;;;;5105332;28;20043;-82
2024/04/05 06:03:55;;;;;;;33.42;6.00;;;10.90;99.90;;;;;;5096807;27;20051;-80
2024/04/05 06:06:21;;;;;;;23.33;6.20;;;10.90;99.90;;;;;;5103576;28;20047;-80
2024/04/05 06:08:47;;;;;;;25.58;5.28;;;11.00;99.90;;;;;;5091305;28;20051;-80
2024/04/05 06:11:12;;;;;;;27.48;5.75;;;11.00;99.90;;;;;;5102467;28;20039;-81
2024/04/05 06:13:38;;;;;;;22.40;5.15;;;11.10;99.90;;;;;;5101910;28;20043;-80
2024/04/05 06:16:07;;;;;;;20.75;5.40;;;11.10;99.90;;;;;;5096680;28;20043;-81
2024/04/05 06:18:32;;;;;;;26.48;4.72;;;11.10;99.90;;;;;;5127374;28;20474;-83
2024/04/05 06:20:59;;;;;;;21.70;5.07;;;11.10;99.90;;;;;;5080631;28;20070;-82
2024/04/05 06:23:25;;;;;;;29.55;4.82;;;11.20;99.90;;;;;;5085994;28;20039;-81
2024/04/05 06:25:58;;;;;;;27.02;5.63;;;11.10;99.90;;;;;;5097962;28;20092;-82
2024/04/05 06:28:25;;;;;;;22.00;4.47;;;11.10;99.90;;;;;;5108160;28;20051;-83
2024/04/05 06:30:50;;;;;;;25.73;5.70;;;11.10;99.90;;;;;;5095482;28;20761;-85
2024/04/05 06:33:16;;;;;;;23.67;5.45;;;11.10;99.90;;;;;;5108744;28;20076;-84
2024/04/05 06:35:43;;;;;;;27.52;5.57;;;11.20;99.90;;;;;;5093253;27;20043;-82
2024/04/05 06:38:09;;;;;;;20.52;4.97;;;11.20;99.90;;;;;;5090345;28;20047;-82
2024/04/05 06:40:36;;;;;;;25.20;5.15;;;11.20;99.90;;;;;;5098647;28;20654;-83
2024/04/05 06:43:02;;;;;;;26.25;7.97;;;11.20;99.90;;;;;;5095568;28;20043;-83
2024/04/05 06:45:28;;;;;;;36.85;10.98;;;11.20;99.90;;;;;;5103493;28;20819;-84
2024/04/05 06:47:55;;;;;;;24.38;6.65;;;11.20;99.90;;;;;;5089776;28;20039;-84
2024/04/05 06:50:24;;;;;;;44.95;18.83;;;11.30;99.90;;;;;;5107024;28;20043;-86
2024/04/05 06:52:49;;;;;;;33.97;11.02;;;11.30;99.90;;;;;;5102800;28;20044;-82
2024/04/05 06:55:19;;;;;;;25.42;5.40;;;11.30;99.90;;;;;;5089364;28;20047;-82
2024/04/05 06:57:45;;;;;;;24.52;5.68;;;11.40;99.90;;;;;;5089296;28;20365;-83
2024/04/05 07:00:11;;;;;;;22.38;4.30;;;11.40;99.90;;;;;;5122930;28;20522;-83
2024/04/05 07:02:36;;;;;;;26.48;5.90;;;11.50;99.90;;;;;;5131489;28;20043;-88
2024/04/05 07:05:02;;;;;;;24.35;5.72;;;11.50;99.90;;;;;;5116084;28;20046;-84
2024/04/05 07:07:28;;;;;;;22.13;4.80;;;11.50;99.90;;;;;;5126109;28;20039;-83
2024/04/05 07:09:54;;;;;;;26.30;5.25;;;11.60;99.90;;;;;;5116825;28;20050;-83
2024/04/05 07:12:20;;;;;;;22.20;5.75;;;11.60;99.90;;;;;;5115329;28;20044;-82
2024/04/05 07:14:46;;;;;;;25.45;4.93;;;11.60;99.90;;;;;;5114596;28;20123;-83
2024/04/05 07:17:12;;;;;;;19.60;5.13;;;11.70;99.90;;;;;;5121674;28;20554;-83
2024/04/05 07:19:38;;;;;;;19.38;5.20;;;11.60;99.90;;;;;;5112845;27;20079;-82
2024/04/05 07:22:04;;;;;;;19.45;5.13;;;11.70;99.90;;;;;;5105739;27;20093;-82
2024/04/05 07:24:29;;;;;;;23.95;6.38;;;11.80;99.90;;;;;;5116547;27;20560;-82
2024/04/05 07:26:55;;;;;;;23.98;5.55;;;11.80;99.90;;;;;;5119065;27;20099;-83
2024/04/05 07:29:21;;;;;;;19.38;4.95;;;11.80;99.90;;;;;;5124822;27;20062;-84
2024/04/05 07:31:49;;;;;;;18.48;4.40;;;11.80;99.90;;;;;;5124937;27;20046;-83
2024/04/05 07:34:15;;;;;;;20.73;4.75;;;11.80;99.90;;;;;;5114146;27;20046;-83
2024/04/05 07:36:41;;;;;;;22.13;4.93;;;11.90;99.90;;;;;;5095179;28;20477;-82
2024/04/05 07:39:08;;;;;;;18.60;5.07;;;11.90;99.90;;;;;;5108710;28;20046;-84
2024/04/05 07:41:34;;;;;;;26.25;4.88;;;12.00;99.90;;;;;;5109716;27;20044;-82
2024/04/05 07:44:01;;;;;;;17.88;4.28;;;12.00;99.90;;;;;;5115882;27;20401;-83
2024/04/05 07:46:26;;;;;;;14.50;5.15;;;12.10;99.90;;;;;;5094500;28;20515;-83
2024/04/05 07:48:52;;;;;;;16.60;4.78;;;12.10;99.90;;;;;;5115093;27;20603;-83
2024/04/05 07:51:18;;;;;;;17.42;4.60;;;12.10;99.90;;;;;;5105076;27;20068;-83
2024/04/05 07:53:47;;;;;;;18.27;5.43;;;12.20;99.90;;;;;;5133148;27;20526;-82
2024/04/05 07:56:16;;;;;;;23.13;5.30;;;12.20;99.90;;;;;;5131195;27;20051;-83
2024/04/05 07:58:42;;;;;;;17.65;5.45;;;12.30;99.90;;;;;;5116601;27;20088;-82
2024/04/05 08:01:08;;;;;;;22.17;5.28;;;12.30;99.90;;;;;;5132467;27;20047;-83
2024/04/05 08:03:34;;;;;;;18.85;5.38;;;12.50;99.90;;;;;;5123508;27;20536;-82
2024/04/05 08:06:01;;;;;;;18.83;4.45;;;12.50;99.90;;;;;;5092919;28;20051;-82
2024/04/05 08:08:27;;;;;;;16.35;4.07;;;12.60;99.90;;;;;;5121271;27;20051;-83
2024/04/05 08:11:02;;;;;;;14.50;4.55;;;12.70;99.90;;;;;;5127533;27;20748;-83
2024/04/05 08:13:28;;;;;;;20.33;4.68;;;12.70;99.90;;;;;;5127380;27;20762;-83
2024/04/05 08:15:54;;;;;;;21.95;4.93;;;12.80;99.90;;;;;;5110385;27;20047;-82
2024/04/05 08:18:20;;;;;;;18.00;5.00;;;12.80;99.90;;;;;;5110553;28;20060;-83
2024/04/05 08:20:45;;;;;;;13.85;4.70;;;12.90;99.90;;;;;;5096021;28;20075;-84
2024/04/05 08:23:11;;;;;;;16.90;4.60;;;12.90;99.90;;;;;;5115915;27;20043;-84
2024/04/05 08:25:36;;;;;;;20.08;4.90;;;12.90;99.90;;;;;;5112071;28;20055;-86
2024/04/05 08:28:03;;;;;;;18.95;4.88;;;13.00;99.90;;;;;;5113538;27;20048;-84
2024/04/05 08:30:29;;;;;;;22.15;4.82;;;13.00;99.90;;;;;;5104304;28;20078;-83
2024/04/05 08:32:55;;;;;;;16.27;4.28;;;13.10;99.90;;;;;;5111124;28;20136;-83
2024/04/05 08:35:20;;;;;;;16.73;4.22;;;13.20;99.90;;;;;;5099725;28;20054;-83
2024/04/05 08:37:46;;;;;;;18.35;4.72;;;13.20;99.90;;;;;;5111617;28;20056;-82
2024/04/05 08:40:12;;;;;;;20.17;4.40;;;13.20;99.90;;;;;;5107450;27;20047;-82
2024/04/05 08:42:39;;;;;;;15.75;3.95;;;13.30;99.90;;;;;;5132322;27;20198;-83
2024/04/05 08:45:06;;;;;;;15.82;3.80;;;13.40;99.90;;;;;;5117070;27;20055;-83
2024/04/05 08:47:35;;;;;;;15.73;4.03;;;13.40;99.90;;;;;;5104460;27;20047;-83
2024/04/05 08:50:08;;;;;;;12.88;3.58;;;13.50;99.90;;;;;;5128512;27;20058;-82
2024/04/05 08:52:34;;;;;;;15.95;4.75;;;13.50;99.90;;;;;;5114972;27;20069;-81
2024/04/05 08:55:04;;;;;;;16.48;3.75;;;13.60;99.90;;;;;;5117954;27;20881;-82
2024/04/05 08:57:34;;;;;;;13.90;3.70;;;13.60;99.90;;;;;;5119590;27;20778;-82
2024/04/05 09:00:01;;;;;;;16.20;4.45;;;13.60;99.90;;;;;;5109261;27;20668;-82
2024/04/05 09:02:26;;;;;;;14.80;3.72;;;13.60;99.90;;;;;;5104722;27;20194;-82
2024/04/05 09:04:52;;;;;;;13.88;3.58;;;13.70;99.90;;;;;;5104170;27;20088;-83
2024/04/05 09:07:20;;;;;;;7.57;2.88;;;13.80;99.90;;;;;;5126393;27;20053;-82
2024/04/05 09:09:47;;;;;;;14.07;3.08;;;13.90;99.90;;;;;;5095378;28;20058;-81
2024/04/05 09:12:21;;;;;;;15.13;4.75;;;13.80;99.90;;;;;;5106884;28;20054;-82
2024/04/05 09:14:59;;;;;;;;;;;13.80;99.90;;;;;;5107345;28;20059;-83
2024/04/05 09:17:25;;;;;;;12.77;3.60;;;13.80;99.90;;;;;;5107762;28;19924;-83
2024/04/05 09:20:09;;;;;;;14.00;4.13;;;13.70;99.90;;;;;;5109238;28;20051;-87
2024/04/05 09:22:34;;;;;;;18.20;3.83;;;13.70;99.90;;;;;;5096018;28;20040;-82
2024/04/05 09:25:04;;;;;;;11.38;4.07;;;13.70;99.90;;;;;;5130244;27;20246;-84
2024/04/05 09:27:30;;;;;;;12.57;3.63;;;13.60;99.90;;;;;;5113310;27;20089;-82
2024/04/05 09:30:04;;;;;;;14.43;3.67;;;13.50;99.90;;;;;;5124220;27;20060;-82
2024/04/05 09:32:29;;;;;;;12.25;3.50;;;13.40;99.90;;;;;;5093904;28;20044;-83
2024/04/05 09:34:57;;;;;;;15.82;4.43;;;13.50;99.90;;;;;;5113330;28;20046;-82
2024/04/05 09:37:26;;;;;;;13.90;4.00;;;13.40;99.90;;;;;;5102274;28;20130;-81
2024/04/05 09:39:52;;;;;;;12.93;3.85;;;13.40;99.90;;;;;;5122309;27;20066;-82
2024/04/05 09:42:22;;;;;;;15.45;3.20;;;13.40;99.90;;;;;;5130981;27;20523;-81
2024/04/05 09:44:56;;;;;;;13.55;4.10;;;13.30;99.90;;;;;;5128978;27;20047;-83
2024/04/05 09:47:23;;;;;;;18.08;3.90;;;13.30;99.90;;;;;;5126488;27;20607;-81
2024/04/05 09:49:49;;;;;;;16.40;3.80;;;13.40;99.90;;;;;;5127261;27;20087;-83
2024/04/05 09:52:20;;;;;;;12.50;3.90;;;13.20;99.90;;;;;;5111757;27;20075;-83
2024/04/05 09:54:53;;;;;;;16.95;4.10;;;13.30;99.90;;;;;;5121935;27;20055;-83
2024/04/05 09:57:19;;;;;;;16.42;4.47;;;13.30;99.90;;;;;;5110963;28;20052;-81
2024/04/05 09:59:48;;;;;;;15.13;3.78;;;13.30;99.90;;;;;;5124039;27;20050;-83
2024/04/05 10:02:17;;;;;;;15.93;3.38;;;13.20;99.90;;;;;;5126825;27;20046;-82
2024/04/05 10:04:44;;;;;;;12.25;4.10;;;13.30;99.90;;;;;;5130666;27;20046;-83
2024/04/05 10:07:11;;;;;;;17.05;3.88;;;13.20;99.90;;;;;;5118409;27;20047;-83
2024/04/05 10:09:38;;;;;;;10.98;4.25;;;13.20;99.90;;;;;;5098146;28;20507;-84
2024/04/05 10:12:16;;;;;;;11.73;3.63;;;13.20;99.90;;;;;;5110164;28;20062;-83
2024/04/05 10:14:55;;;;;;;15.85;4.05;;;13.20;99.90;;;;;;5092035;28;20701;-83
2024/04/05 10:17:27;;;;;;;14.88;4.65;;;13.10;99.90;;;;;;5092565;28;20135;-83
2024/04/05 10:20:03;;;;;;;12.25;4.05;;;13.10;99.90;;;;;;5115604;28;20171;-82
2024/04/05 10:22:29;;;;;;;13.02;4.40;;;13.10;99.90;;;;;;5131261;28;20100;-81
2024/04/05 10:24:55;;;;;;;13.10;4.32;;;13.10;99.90;;;;;;5124390;28;20047;-82
2024/04/05 10:27:25;;;;;;;17.15;3.80;;;13.00;99.90;;;;;;5129852;28;20497;-83
2024/04/05 10:30:06;;;;;;;16.60;5.13;;;13.00;99.90;;;;;;5130119;28;20047;-82
2024/04/05 10:32:33;;;;;;;19.15;4.55;;;13.00;99.90;;;;;;5115644;28;20046;-82
2024/04/05 10:35:06;;;;;;;16.15;4.60;;;13.00;99.90;;;;;;5129654;28;20051;-81
2024/04/05 10:37:33;;;;;;;14.13;4.20;;;13.00;99.90;;;;;;5128367;27;20047;-83
2024/04/05 10:40:06;;;;;;;15.00;3.72;;;13.00;99.90;;;;;;5110484;28;20040;-82
2024/04/05 10:42:32;;;;;;;16.40;4.15;;;13.00;99.90;;;;;;5111522;28;20035;-83
2024/04/05 10:44:58;;;;;;;13.82;4.82;;;13.10;99.90;;;;;;5130041;28;20051;-83
2024/04/05 10:47:25;;;;;;;14.80;4.43;;;13.10;99.90;;;;;;5148656;27;20082;-83
2024/04/05 10:50:18;;;;;;;14.35;4.53;;;13.00;99.90;;;;;;5131174;27;20054;-83
2024/04/05 10:52:54;;;;;;;17.60;4.68;;;13.10;99.90;;;;;;5070778;28;20066;-82
2024/04/05 10:55:20;;;;;;;17.00;4.35;;;13.10;99.90;;;;;;5128009;27;20082;-83
2024/04/05 10:57:46;;;;;;;15.63;4.53;;;13.10;99.90;;;;;;5131123;27;20162;-82
2024/04/05 11:00:13;;;;;;;19.70;5.22;;;13.10;99.90;;;;;;5133639;27;20533;-84
2024/04/05 11:02:43;;;;;;;14.57;4.75;;;13.10;99.90;;;;;;5106852;27;20127;-82
2024/04/05 11:05:13;;;;;;;20.48;5.38;;;13.20;99.90;;;;;;5116712;27;20051;-82
2024/04/05 11:07:44;;;;;;;10.98;4.18;;;13.30;99.90;;;;;;5115497;27;20834;-83
2024/04/05 11:10:14;;;;;;;14.55;4.20;;;13.40;99.90;;;;;;5129945;27;20088;-82
2024/04/05 11:12:40;;;;;;;11.82;4.10;;;13.50;99.90;;;;;;5125049;27;20808;-84
2024/04/05 11:15:07;;;;;;;12.02;4.22;;;13.50;99.90;;;;;;5132020;27;20056;-81
2024/04/05 11:17:33;;;;;;;12.27;3.67;;;13.60;99.90;;;;;;5133306;27;20043;-81
2024/04/05 11:20:11;;;;;;;14.32;4.43;;;13.60;99.90;;;;;;5100889;27;20051;-82
2024/04/05 11:22:37;;;;;;;15.85;4.43;;;13.60;99.90;;;;;;5119401;27;20028;-82
2024/04/05 11:25:04;;;;;;;11.68;3.70;;;13.60;99.90;;;;;;5131307;27;20047;-83
2024/04/05 11:27:30;;;;;;;10.10;3.67;;;13.60;99.90;;;;;;5095628;28;20047;-83
2024/04/05 11:29:56;;;;;;;17.85;4.35;;;13.60;99.90;;;;;;5123856;27;20083;-82
2024/04/05 11:32:31;;;;;;;10.52;3.65;;;13.50;99.90;;;;;;5121944;27;20055;-83
2024/04/05 11:35:01;;;;;;;13.77;3.55;;;13.60;99.90;;;;;;5127031;27;20051;-83
2024/04/05 11:37:28;;;;;;;9.32;4.07;;;13.50;99.90;;;;;;5131998;27;20448;-83
2024/04/05 11:39:55;;;;;;;14.65;3.70;;;13.50;99.90;;;;;;5129396;27;20087;-83
2024/04/05 11:42:20;;;;;;;12.57;3.85;;;13.50;99.90;;;;;;5111666;28;20847;-82
2024/04/05 11:44:48;;;;;;;10.40;3.28;;;13.50;99.90;;;;;;5112834;27;20063;-81
2024/04/05 11:47:13;;;;;;;10.05;3.40;;;13.40;99.90;;;;;;5094646;27;20059;-81
2024/04/05 11:49:39;;;;;;;9.55;3.50;;;13.50;99.90;;;;;;5113132;27;20047;-82
2024/04/05 11:52:07;;;;;;;9.82;3.83;;;13.50;99.90;;;;;;5115732;27;20058;-81
2024/04/05 11:54:33;;;;;;;10.88;3.22;;;13.50;99.90;;;;;;5110364;27;20055;-81
2024/04/05 11:56:58;;;;;;;6.53;2.80;;;13.50;99.90;;;;;;5113084;28;20059;-80
2024/04/05 11:59:24;;;;;;;11.48;2.78;;;13.60;99.90;;;;;;5113318;27;20092;-82
2024/04/05 12:01:50;;;;;;;8.18;3.22;;;13.60;99.90;;;;;;5109408;27;20046;-81
2024/04/05 12:04:15;;;;;;;8.90;3.40;;;13.60;99.90;;;;;;5095814;28;20511;-82
2024/04/05 12:06:41;;;;;;;12.15;3.65;;;13.60;99.90;;;;;;5094665;28;20062;-82
2024/04/05 12:09:08;;;;;;;9.30;3.47;;;13.70;99.90;;;;;;5102468;28;20047;-82
2024/04/05 12:11:34;;;;;;;9.35;3.00;;;13.60;99.90;;;;;;5097201;27;20095;-82
2024/04/05 12:13:59;;;;;;;9.75;3.38;;;13.70;99.90;;;;;;5127113;27;20043;-84
2024/04/05 12:16:25;;;;;;;13.60;3.75;;;13.60;99.90;;;;;;5104855;28;20763;-81
2024/04/05 12:18:55;;;;;;;8.73;3.22;;;13.60;99.90;;;;;;5110604;28;20066;-80
2024/04/05 12:21:21;;;;;;;13.70;4.45;;;13.60;99.90;;;;;;5108411;27;20054;-81
2024/04/05 12:23:46;;;;;;;11.70;3.50;;;13.70;99.90;;;;;;5132362;27;20047;-82
2024/04/05 12:26:12;;;;;;;11.15;3.95;;;13.60;99.90;;;;;;5089922;28;20043;-83
2024/04/05 12:28:38;;;;;;;13.13;4.15;;;13.60;99.90;;;;;;5078611;28;20130;-82
2024/04/05 12:31:04;;;;;;;9.48;3.80;;;13.60;99.90;;;;;;5091574;28;20051;-83
2024/04/05 12:33:29;;;;;;;9.27;3.70;;;13.50;99.90;;;;;;5099768;27;20046;-82
2024/04/05 12:35:58;;;;;;;13.23;4.05;;;13.50;99.90;;;;;;5112919;27;20043;-81